createdAt,value
2023-03-29T00:00:49.647Z,4.90
2023-03-29T00:03:17.190Z,4.92
2023-03-29T00:05:44.770Z,4.92
2023-03-29T00:08:14.280Z,4.93
2023-03-29T00:10:41.832Z,4.93
2023-03-29T00:13:08.603Z,4.95
2023-03-29T00:15:36.235Z,4.96
2023-03-29T00:18:02.639Z,4.98
2023-03-29T00:20:29.142Z,4.98
2023-03-29T00:22:55.698Z,4.99
2023-03-29T00:25:22.201Z,5.00
2023-03-29T00:27:48.750Z,5.03
2023-03-29T00:30:15.946Z,5.02
2023-03-29T00:32:42.920Z,5.03
2023-03-29T00:35:10.019Z,5.03
2023-03-29T00:37:37.877Z,5.01
2023-03-29T00:40:11.685Z,5.00
2023-03-29T00:42:38.435Z,5.01
2023-03-29T00:45:25.130Z,5.01
2023-03-29T00:47:59.963Z,5.02
2023-03-29T00:50:30.806Z,5.03
2023-03-29T00:53:01.496Z,5.04
2023-03-29T00:55:33.362Z,5.07
2023-03-29T00:58:00.949Z,5.08
2023-03-29T01:00:34.994Z,5.12
2023-03-29T01:03:07.079Z,5.13
2023-03-29T01:05:40.634Z,5.15
2023-03-29T01:08:17.931Z,5.22
2023-03-29T01:11:26.639Z,5.23
2023-03-29T01:13:56.049Z,5.29
2023-03-29T01:16:25.758Z,5.30
2023-03-29T01:18:52.362Z,5.33
2023-03-29T01:21:23.463Z,5.37
2023-03-29T01:23:58.216Z,5.41
2023-03-29T01:26:43.674Z,5.46
2023-03-29T01:29:15.382Z,5.50
2023-03-29T01:31:47.054Z,5.56
2023-03-29T01:34:52.559Z,5.61
2023-03-29T01:37:34.195Z,5.65
2023-03-29T01:40:01.119Z,5.72
2023-03-29T01:42:36.373Z,5.80
2023-03-29T01:45:20.137Z,5.87
2023-03-29T01:48:03.472Z,5.89
2023-03-29T01:50:38.642Z,5.89
2023-03-29T01:53:10.672Z,5.94
2023-03-29T01:55:45.900Z,5.97
2023-03-29T01:58:15.005Z,5.96
2023-03-29T02:00:43.740Z,5.95
2023-03-29T02:03:10.574Z,5.96
2023-03-29T02:05:39.211Z,5.98
2023-03-29T02:08:09.150Z,5.98
2023-03-29T02:10:36.781Z,5.97
2023-03-29T02:13:04.234Z,5.96
2023-03-29T02:15:30.706Z,5.95
2023-03-29T02:17:57.227Z,5.93
2023-03-29T02:20:31.900Z,5.94
2023-03-29T02:23:12.400Z,5.93
2023-03-29T02:25:38.835Z,5.93
2023-03-29T02:28:06.731Z,5.94
2023-03-29T02:31:05.586Z,5.91
2023-03-29T02:33:34.985Z,5.90
2023-03-29T02:36:38.179Z,5.92
2023-03-29T02:39:06.038Z,5.92
2023-03-29T02:41:32.905Z,5.92
2023-03-29T02:44:01.194Z,5.92
2023-03-29T02:46:28.181Z,5.93
2023-03-29T02:48:56.910Z,5.94
2023-03-29T02:51:33.741Z,5.93
2023-03-29T02:54:05.918Z,5.95
2023-03-29T02:56:45.097Z,5.96
2023-03-29T02:59:12.398Z,5.95
2023-03-29T03:01:42.812Z,5.95
2023-03-29T03:04:13.147Z,5.96
2023-03-29T03:06:39.917Z,5.94
2023-03-29T03:09:07.485Z,5.94
2023-03-29T03:11:34.356Z,5.92
2023-03-29T03:14:00.900Z,5.90
2023-03-29T03:16:27.933Z,5.88
2023-03-29T03:18:55.581Z,5.88
2023-03-29T03:21:23.092Z,5.87
2023-03-29T03:23:49.695Z,5.88
2023-03-29T03:26:17.769Z,5.90
2023-03-29T03:28:45.730Z,5.89
2023-03-29T03:31:15.873Z,5.90
2023-03-29T03:33:42.476Z,5.88
2023-03-29T03:36:10.407Z,5.89
2023-03-29T03:38:38.247Z,5.90
2023-03-29T03:41:06.855Z,5.91
2023-03-29T03:43:34.138Z,5.90
2023-03-29T03:46:00.701Z,5.90
2023-03-29T03:48:27.322Z,5.88
2023-03-29T03:50:56.041Z,5.88
2023-03-29T03:53:23.551Z,5.90
2023-03-29T03:55:50.927Z,5.89
2023-03-29T03:58:18.363Z,5.89
2023-03-29T04:00:48.180Z,5.89
2023-03-29T04:03:15.666Z,5.89
2023-03-29T04:05:44.471Z,5.89
2023-03-29T04:08:14.894Z,5.91
2023-03-29T04:10:41.567Z,5.91
2023-03-29T04:13:08.290Z,5.93
2023-03-29T04:15:41.103Z,5.96
2023-03-29T04:18:07.798Z,5.96
2023-03-29T04:20:34.627Z,5.97
2023-03-29T04:23:01.613Z,5.96
2023-03-29T04:25:28.434Z,5.97
2023-03-29T04:27:54.870Z,5.98
2023-03-29T04:30:21.775Z,5.97
2023-03-29T04:32:48.719Z,5.96
2023-03-29T04:35:15.214Z,5.95
2023-03-29T04:37:41.782Z,5.95
2023-03-29T04:40:09.922Z,5.99
2023-03-29T04:42:37.586Z,5.98
2023-03-29T04:45:06.943Z,5.98
2023-03-29T04:47:36.212Z,6.00
2023-03-29T04:50:03.424Z,5.99
2023-03-29T04:52:32.963Z,5.97
2023-03-29T04:55:03.999Z,5.97
2023-03-29T04:57:30.759Z,5.98
2023-03-29T04:59:57.648Z,6.01
2023-03-29T05:02:24.118Z,6.00
2023-03-29T05:04:50.508Z,6.00
2023-03-29T05:07:18.146Z,6.03
2023-03-29T05:09:44.598Z,6.03
2023-03-29T05:12:11.061Z,6.05
2023-03-29T05:14:37.401Z,6.05
2023-03-29T05:17:04.986Z,6.06
2023-03-29T05:19:31.908Z,6.06
2023-03-29T05:21:59.087Z,6.08
2023-03-29T05:24:25.718Z,6.10
2023-03-29T05:26:52.274Z,6.16
2023-03-29T05:29:19.067Z,6.20
2023-03-29T05:31:46.821Z,6.20
2023-03-29T05:34:13.325Z,6.22
2023-03-29T05:36:39.749Z,6.22
2023-03-29T05:39:06.775Z,6.24
2023-03-29T05:41:33.626Z,6.26
2023-03-29T05:44:00.054Z,6.27
2023-03-29T05:46:26.972Z,6.28
2023-03-29T05:48:53.553Z,6.29
2023-03-29T05:51:24.467Z,6.33
2023-03-29T05:53:51.488Z,6.35
2023-03-29T05:56:18.897Z,6.36
2023-03-29T05:58:50.941Z,6.38
2023-03-29T06:01:18.203Z,6.40
2023-03-29T06:03:46.215Z,6.44
2023-03-29T06:06:16.092Z,6.45
2023-03-29T06:08:43.457Z,6.50
2023-03-29T06:11:11.495Z,6.52
2023-03-29T06:13:38.808Z,6.55
2023-03-29T06:16:06.376Z,6.60
2023-03-29T06:18:33.412Z,6.64
2023-03-29T06:21:02.000Z,6.67
2023-03-29T06:23:29.256Z,6.72
2023-03-29T06:25:56.464Z,6.79
2023-03-29T06:28:23.943Z,6.87
2023-03-29T06:30:50.570Z,6.91
2023-03-29T06:33:17.226Z,6.95
2023-03-29T06:35:47.499Z,7.03
2023-03-29T06:38:15.083Z,7.13
2023-03-29T06:40:43.194Z,7.21
2023-03-29T06:43:10.275Z,7.26
2023-03-29T06:45:38.566Z,7.32
2023-03-29T06:48:06.267Z,7.39
2023-03-29T06:50:33.020Z,7.47
2023-03-29T06:52:59.641Z,7.55
2023-03-29T06:55:27.098Z,7.60
2023-03-29T06:57:54.648Z,7.66
2023-03-29T07:00:39.364Z,7.73
2023-03-29T07:03:09.651Z,7.80
2023-03-29T07:05:37.157Z,7.82
2023-03-29T07:08:06.417Z,7.86
2023-03-29T07:10:38.304Z,8.07
2023-03-29T07:13:11.006Z,8.28
2023-03-29T07:15:37.593Z,8.50
2023-03-29T07:18:04.641Z,8.48
2023-03-29T07:20:32.046Z,8.56
2023-03-29T07:22:58.412Z,8.56
2023-03-29T07:25:26.140Z,8.63
2023-03-29T07:27:52.948Z,8.62
2023-03-29T07:30:23.235Z,8.57
2023-03-29T07:32:51.075Z,8.56
2023-03-29T07:35:18.421Z,8.57
2023-03-29T07:37:46.326Z,8.58
2023-03-29T07:40:18.694Z,8.56
2023-03-29T07:42:46.592Z,8.62
2023-03-29T07:45:16.348Z,8.73
2023-03-29T07:47:47.503Z,8.76
2023-03-29T07:50:14.554Z,8.86
2023-03-29T07:52:41.094Z,8.98
2023-03-29T07:55:10.277Z,9.15
2023-03-29T07:57:36.870Z,9.22
2023-03-29T08:00:16.972Z,9.28
2023-03-29T08:02:45.699Z,9.32
2023-03-29T08:05:14.132Z,9.23
2023-03-29T08:07:42.317Z,9.27
2023-03-29T08:10:11.542Z,9.30
2023-03-29T08:12:38.041Z,9.34
2023-03-29T08:15:05.490Z,9.41
2023-03-29T08:17:33.117Z,9.41
2023-03-29T08:19:59.587Z,9.44
2023-03-29T08:22:26.098Z,9.53
2023-03-29T08:24:52.870Z,9.67
2023-03-29T08:27:19.796Z,9.56
2023-03-29T08:29:46.609Z,9.59
2023-03-29T08:32:12.996Z,9.59
2023-03-29T08:34:39.378Z,9.68
2023-03-29T08:37:05.757Z,9.88
2023-03-29T08:39:32.488Z,9.98
2023-03-29T08:42:08.850Z,10.04
2023-03-29T08:44:54.517Z,10.12
2023-03-29T08:47:36.586Z,10.26
2023-03-29T08:50:03.207Z,10.28
2023-03-29T08:52:42.888Z,10.21
2023-03-29T08:55:24.460Z,10.08
2023-03-29T08:57:51.788Z,10.16
2023-03-29T09:00:24.389Z,10.20
2023-03-29T09:02:53.855Z,10.18
2023-03-29T09:05:27.336Z,10.21
2023-03-29T09:07:54.433Z,10.20
2023-03-29T09:10:28.043Z,10.18
2023-03-29T09:13:30.226Z,10.28
2023-03-29T09:16:32.999Z,10.29
2023-03-29T09:19:06.255Z,10.19
2023-03-29T09:21:55.896Z,10.15
2023-03-29T09:24:54.142Z,10.22
2023-03-29T09:27:27.417Z,10.43
2023-03-29T09:30:07.128Z,10.56
2023-03-29T09:32:51.313Z,10.58
2023-03-29T09:35:33.353Z,10.80
2023-03-29T09:38:00.647Z,10.98
2023-03-29T09:40:37.874Z,11.10
2023-03-29T09:43:13.646Z,11.26
2023-03-29T09:45:41.124Z,11.08
2023-03-29T09:48:15.428Z,11.01
2023-03-29T09:50:47.490Z,11.24
2023-03-29T09:53:18.672Z,11.61
2023-03-29T09:55:49.078Z,11.89
2023-03-29T09:58:20.378Z,11.73
2023-03-29T10:00:48.249Z,11.37
2023-03-29T10:03:29.597Z,11.12
2023-03-29T10:05:59.896Z,11.05
2023-03-29T10:08:35.875Z,11.11
2023-03-29T10:11:09.581Z,11.34
2023-03-29T10:13:50.897Z,11.65
2023-03-29T10:16:41.482Z,11.91
2023-03-29T10:19:22.328Z,12.27
2023-03-29T10:21:50.357Z,12.39
2023-03-29T10:24:24.588Z,12.43
2023-03-29T10:26:56.245Z,12.41
2023-03-29T10:29:24.584Z,12.46
2023-03-29T10:31:51.793Z,12.27
2023-03-29T10:34:18.868Z,12.11
2023-03-29T10:36:55.606Z,12.01
2023-03-29T10:39:22.979Z,11.94
2023-03-29T10:41:52.421Z,12.11
2023-03-29T10:44:34.220Z,11.95
2023-03-29T10:47:16.998Z,12.07
2023-03-29T10:49:47.801Z,11.88
2023-03-29T10:52:16.420Z,11.95
2023-03-29T10:54:43.684Z,12.02
2023-03-29T10:57:15.792Z,12.11
2023-03-29T10:59:52.965Z,12.09
2023-03-29T11:02:30.249Z,12.19
2023-03-29T11:05:19.233Z,12.48
2023-03-29T11:07:51.889Z,12.40
2023-03-29T11:10:36.531Z,12.54
2023-03-29T11:13:40.833Z,12.43
2023-03-29T11:16:45.223Z,12.20
2023-03-29T11:19:49.275Z,11.90
2023-03-29T11:22:21.770Z,11.54
2023-03-29T11:25:11.458Z,11.60
2023-03-29T11:27:44.909Z,11.47
2023-03-29T11:30:25.778Z,11.35
2023-03-29T11:33:24.127Z,11.48
2023-03-29T11:36:01.822Z,11.57
2023-03-29T11:38:59.372Z,11.96
2023-03-29T11:41:30.412Z,12.04
2023-03-29T11:44:10.298Z,12.07
2023-03-29T11:46:44.132Z,12.00
2023-03-29T11:49:32.194Z,12.22
2023-03-29T11:52:20.007Z,12.36
2023-03-29T11:54:55.547Z,12.24
2023-03-29T11:57:37.009Z,12.41
2023-03-29T12:00:12.845Z,12.31
2023-03-29T12:02:44.398Z,12.09
2023-03-29T12:05:24.403Z,12.30
2023-03-29T12:07:56.080Z,12.38
2023-03-29T12:10:29.019Z,12.17
2023-03-29T12:13:00.939Z,12.10
2023-03-29T12:15:33.540Z,12.13
2023-03-29T12:18:20.002Z,12.00
2023-03-29T12:20:52.176Z,12.09
2023-03-29T12:23:19.169Z,12.24
2023-03-29T12:26:04.092Z,12.27
2023-03-29T12:28:55.451Z,12.24
2023-03-29T12:31:42.372Z,12.24
2023-03-29T12:34:36.251Z,12.06
2023-03-29T12:37:14.652Z,11.80
2023-03-29T12:39:41.304Z,11.70
2023-03-29T12:42:16.939Z,11.50
2023-03-29T12:44:51.972Z,11.42
2023-03-29T12:47:25.234Z,11.33
2023-03-29T12:49:58.099Z,11.27
2023-03-29T12:52:30.418Z,11.21
2023-03-29T12:55:25.233Z,11.24
2023-03-29T12:58:05.060Z,11.20
2023-03-29T13:00:40.220Z,11.35
2023-03-29T13:03:27.585Z,11.47
2023-03-29T13:06:03.456Z,11.60
2023-03-29T13:08:39.939Z,11.79
2023-03-29T13:11:31.445Z,11.79
2023-03-29T13:14:01.408Z,11.82
2023-03-29T13:16:34.879Z,11.92
2023-03-29T13:19:09.656Z,12.15
2023-03-29T13:22:10.409Z,12.24
2023-03-29T13:24:55.619Z,12.37
2023-03-29T13:27:31.677Z,12.45
2023-03-29T13:30:11.546Z,12.40
2023-03-29T13:32:47.205Z,12.43
2023-03-29T13:35:41.314Z,12.48
2023-03-29T13:38:18.769Z,12.39
2023-03-29T13:40:54.359Z,12.24
2023-03-29T13:43:51.638Z,12.34
2023-03-29T13:46:23.239Z,12.43
2023-03-29T13:48:54.555Z,12.61
2023-03-29T13:51:27.958Z,12.60
2023-03-29T13:54:01.453Z,12.64
2023-03-29T13:56:43.177Z,12.84
2023-03-29T13:59:11.819Z,12.82
2023-03-29T14:01:54.520Z,12.93
2023-03-29T14:04:25.226Z,13.07
2023-03-29T14:06:54.383Z,13.20
2023-03-29T14:09:30.049Z,13.22
2023-03-29T14:11:58.779Z,13.38
2023-03-29T14:14:27.879Z,13.41
2023-03-29T14:16:56.259Z,13.20
2023-03-29T14:19:34.409Z,13.28
2023-03-29T14:22:02.306Z,13.41
2023-03-29T14:24:37.659Z,13.30
2023-03-29T14:27:06.894Z,13.33
2023-03-29T14:29:34.201Z,13.22
2023-03-29T14:32:11.847Z,13.28
2023-03-29T14:34:39.575Z,13.37
2023-03-29T14:37:08.911Z,13.46
2023-03-29T14:39:35.973Z,13.61
2023-03-29T14:42:02.656Z,13.82
2023-03-29T14:44:33.015Z,13.84
2023-03-29T14:47:01.427Z,13.84
2023-03-29T14:49:28.026Z,13.92
2023-03-29T14:51:55.635Z,13.94
2023-03-29T14:54:32.657Z,13.99
2023-03-29T14:57:03.278Z,14.05
2023-03-29T14:59:41.656Z,14.14
2023-03-29T15:02:23.305Z,14.25
2023-03-29T15:05:25.434Z,14.20
2023-03-29T15:07:55.809Z,14.11
2023-03-29T15:10:22.439Z,14.08
2023-03-29T15:12:50.068Z,14.19
2023-03-29T15:15:16.971Z,14.24
2023-03-29T15:17:51.827Z,14.24
2023-03-29T15:20:25.589Z,14.30
2023-03-29T15:22:59.286Z,14.18
2023-03-29T15:25:47.562Z,14.23
2023-03-29T15:28:27.625Z,14.17
2023-03-29T15:31:07.254Z,14.11
2023-03-29T15:33:38.228Z,14.12
2023-03-29T15:36:06.865Z,14.17
2023-03-29T15:38:43.120Z,14.17
2023-03-29T15:41:10.831Z,14.11
2023-03-29T15:43:37.480Z,14.01
2023-03-29T15:46:04.338Z,13.94
2023-03-29T15:48:33.820Z,13.88
2023-03-29T15:51:05.516Z,13.84
2023-03-29T15:53:33.196Z,13.89
2023-03-29T15:56:02.148Z,13.93
2023-03-29T15:58:33.543Z,13.90
2023-03-29T16:01:11.163Z,13.85
2023-03-29T16:03:38.482Z,13.85
2023-03-29T16:06:05.425Z,13.91
2023-03-29T16:08:32.058Z,13.94
2023-03-29T16:10:58.364Z,13.98
2023-03-29T16:13:24.717Z,13.97
2023-03-29T16:15:51.045Z,13.92
2023-03-29T16:18:17.399Z,13.90
2023-03-29T16:20:43.815Z,13.87
2023-03-29T16:23:11.438Z,13.84
2023-03-29T16:25:39.769Z,13.80
2023-03-29T16:28:08.909Z,13.76
2023-03-29T16:30:36.675Z,13.76
2023-03-29T16:33:06.308Z,13.77
2023-03-29T16:35:35.433Z,13.78
2023-03-29T16:38:01.884Z,13.74
2023-03-29T16:40:28.347Z,13.70
2023-03-29T16:42:54.808Z,13.63
2023-03-29T16:45:21.314Z,13.57
2023-03-29T16:47:47.904Z,13.51
2023-03-29T16:50:17.894Z,13.46
2023-03-29T16:52:46.101Z,13.41
2023-03-29T16:55:13.592Z,13.36
2023-03-29T16:57:40.154Z,13.30
2023-03-29T17:00:12.241Z,13.28
2023-03-29T17:02:38.699Z,13.21
2023-03-29T17:05:06.061Z,13.19
2023-03-29T17:07:33.528Z,13.19
2023-03-29T17:10:00.158Z,13.16
2023-03-29T17:12:26.821Z,13.14
2023-03-29T17:14:53.148Z,13.12
2023-03-29T17:17:19.640Z,13.11
2023-03-29T17:19:46.173Z,13.10
2023-03-29T17:22:12.584Z,13.10
2023-03-29T17:24:38.970Z,13.07
2023-03-29T17:27:05.293Z,13.01
2023-03-29T17:29:31.807Z,13.00
2023-03-29T17:31:58.393Z,12.99
2023-03-29T17:34:27.026Z,12.96
2023-03-29T17:36:54.015Z,12.94
2023-03-29T17:39:20.445Z,12.92
2023-03-29T17:41:47.320Z,12.90
2023-03-29T17:44:13.896Z,12.87
2023-03-29T17:46:40.257Z,12.86
2023-03-29T17:49:06.625Z,12.80
2023-03-29T17:51:32.974Z,12.72
2023-03-29T17:53:59.333Z,12.66
2023-03-29T17:56:26.536Z,12.63
2023-03-29T17:58:53.423Z,12.58
2023-03-29T18:01:20.348Z,12.51
2023-03-29T18:03:48.289Z,12.42
2023-03-29T18:06:17.995Z,12.31
2023-03-29T18:08:44.740Z,12.27
2023-03-29T18:11:22.296Z,12.18
2023-03-29T18:13:49.777Z,12.15
2023-03-29T18:16:16.374Z,12.05
2023-03-29T18:18:43.655Z,11.98
2023-03-29T18:21:10.816Z,11.97
2023-03-29T18:23:39.830Z,11.96
2023-03-29T18:26:07.334Z,11.88
2023-03-29T18:28:34.898Z,11.85
2023-03-29T18:31:01.278Z,11.87
2023-03-29T18:33:30.123Z,11.90
2023-03-29T18:35:56.510Z,11.86
2023-03-29T18:38:22.942Z,11.84
2023-03-29T18:40:50.416Z,11.81
2023-03-29T18:43:17.050Z,11.76
2023-03-29T18:45:44.398Z,11.68
2023-03-29T18:48:11.079Z,11.67
2023-03-29T18:50:38.672Z,11.69
2023-03-29T18:53:05.271Z,11.70
2023-03-29T18:55:31.641Z,11.75
2023-03-29T18:57:58.004Z,11.83
2023-03-29T19:00:24.471Z,11.78
2023-03-29T19:02:51.054Z,11.75
2023-03-29T19:05:17.624Z,11.67
2023-03-29T19:07:44.297Z,11.73
2023-03-29T19:10:12.042Z,11.75
2023-03-29T19:12:38.568Z,11.67
2023-03-29T19:15:05.641Z,11.63
2023-03-29T19:17:32.178Z,11.57
2023-03-29T19:19:58.800Z,11.53
2023-03-29T19:22:25.240Z,11.46
2023-03-29T19:24:51.577Z,11.38
2023-03-29T19:27:18.448Z,11.28
2023-03-29T19:29:44.828Z,11.32
2023-03-29T19:32:11.225Z,11.39
2023-03-29T19:34:37.572Z,11.44
2023-03-29T19:37:03.978Z,11.50
2023-03-29T19:39:30.476Z,11.48
2023-03-29T19:41:56.914Z,11.45
2023-03-29T19:44:23.566Z,11.47
2023-03-29T19:46:51.200Z,11.50
2023-03-29T19:49:17.642Z,11.48
2023-03-29T19:51:44.185Z,11.53
2023-03-29T19:54:13.732Z,11.57
2023-03-29T19:56:42.825Z,11.56
2023-03-29T19:59:11.113Z,11.50
2023-03-29T20:01:39.034Z,11.49
2023-03-29T20:04:05.571Z,11.48
2023-03-29T20:06:31.985Z,11.48
2023-03-29T20:08:58.811Z,11.57
2023-03-29T20:11:25.568Z,11.67
2023-03-29T20:13:52.270Z,11.63
2023-03-29T20:16:19.200Z,11.60
2023-03-29T20:18:46.481Z,11.64
2023-03-29T20:21:16.207Z,11.61
2023-03-29T20:23:42.710Z,11.56
2023-03-29T20:26:09.104Z,11.50
2023-03-29T20:28:37.529Z,11.53
2023-03-29T20:31:06.198Z,11.57
2023-03-29T20:33:33.488Z,11.56
2023-03-29T20:36:00.000Z,11.63
2023-03-29T20:38:26.600Z,11.62
2023-03-29T20:40:53.538Z,11.58
2023-03-29T20:43:20.179Z,11.67
2023-03-29T20:45:53.440Z,11.70
2023-03-29T20:48:22.820Z,11.83
2023-03-29T20:50:49.454Z,11.93
2023-03-29T20:53:16.361Z,11.94
2023-03-29T20:55:42.778Z,12.02
2023-03-29T20:58:09.421Z,12.16
2023-03-29T21:00:37.614Z,12.18
2023-03-29T21:03:04.206Z,12.22
2023-03-29T21:05:32.912Z,12.15
2023-03-29T21:07:59.966Z,12.24
2023-03-29T21:10:27.353Z,12.21
2023-03-29T21:12:54.281Z,12.22
2023-03-29T21:15:20.959Z,12.23
2023-03-29T21:17:47.552Z,12.22
2023-03-29T21:20:15.189Z,12.23
2023-03-29T21:22:45.540Z,12.24
2023-03-29T21:25:15.502Z,12.28
2023-03-29T21:27:42.099Z,12.35
2023-03-29T21:30:09.853Z,12.21
2023-03-29T21:32:36.611Z,12.17
2023-03-29T21:35:03.184Z,12.11
2023-03-29T21:37:29.559Z,12.13
2023-03-29T21:39:55.909Z,12.25
2023-03-29T21:42:22.257Z,12.21
2023-03-29T21:44:48.592Z,12.20
2023-03-29T21:47:14.961Z,12.14
2023-03-29T21:49:41.646Z,12.10
2023-03-29T21:52:08.023Z,12.06
2023-03-29T21:54:34.410Z,12.07
2023-03-29T21:57:01.198Z,12.00
2023-03-29T21:59:27.929Z,11.89
2023-03-29T22:01:54.344Z,11.90
2023-03-29T22:04:35.331Z,11.90
2023-03-29T22:07:03.060Z,11.83
2023-03-29T22:09:29.605Z,11.85
2023-03-29T22:11:56.770Z,11.85
2023-03-29T22:14:23.183Z,11.83
2023-03-29T22:16:49.567Z,11.83
2023-03-29T22:19:16.024Z,11.88
2023-03-29T22:21:42.495Z,11.89
2023-03-29T22:24:08.839Z,11.92
2023-03-29T22:26:35.466Z,11.83
2023-03-29T22:29:02.768Z,11.79
2023-03-29T22:31:31.244Z,11.73
2023-03-29T22:33:58.482Z,11.70
2023-03-29T22:36:27.600Z,11.72
2023-03-29T22:38:54.936Z,11.67
2023-03-29T22:41:23.780Z,11.71
2023-03-29T22:43:52.483Z,11.65
2023-03-29T22:46:19.898Z,11.68
2023-03-29T22:48:46.718Z,11.65
2023-03-29T22:51:13.219Z,11.59
2023-03-29T22:53:39.580Z,11.58
2023-03-29T22:56:07.447Z,11.61
2023-03-29T22:58:33.901Z,11.65
2023-03-29T23:01:00.423Z,11.58
2023-03-29T23:03:26.924Z,11.62
2023-03-29T23:05:55.668Z,11.60
2023-03-29T23:08:26.120Z,11.64
2023-03-29T23:10:52.753Z,11.66
2023-03-29T23:13:24.006Z,11.89
2023-03-29T23:15:50.792Z,11.85
2023-03-29T23:18:20.902Z,11.82
2023-03-29T23:20:48.980Z,11.94
2023-03-29T23:23:17.017Z,11.99
2023-03-29T23:25:45.571Z,12.13
2023-03-29T23:28:12.654Z,12.13
2023-03-29T23:30:39.431Z,12.18
2023-03-29T23:33:06.833Z,12.19
2023-03-29T23:35:33.441Z,12.18
2023-03-29T23:37:59.801Z,12.27
2023-03-29T23:40:27.665Z,12.30
2023-03-29T23:42:59.367Z,12.25
2023-03-29T23:45:29.284Z,12.23
2023-03-29T23:47:56.990Z,12.30
2023-03-29T23:50:23.703Z,12.27
2023-03-29T23:52:51.492Z,12.24
2023-03-29T23:55:18.435Z,12.30
2023-03-29T23:57:44.862Z,12.43
